| time (UTC) | temp F | wind direction | speed MPH | gust MPH | rain 1hr in | rain 24hr in | rain mn in | humidity % | barometer mb |
| 20260905212943 | 84 | 210 | 0.0 | 0.0 | 0.00 | 0.00 | 0.26 | 79 | 1012.1 |
| 20260905212044 | 86 | 216 | 0.0 | 0.0 | 0.00 | 0.00 | 0.26 | 78 | 1012.1 |
| 20260905211614 | 86 | 268 | 0.0 | 2.0 | 0.00 | 0.00 | 0.26 | 73 | 1012.1 |
| 20260905211158 | 86 | 253 | 0.0 | 0.0 | 0.00 | 0.00 | 0.26 | 75 | 1011.8 |
| 20260905210743 | 86 | 231 | 2.0 | 5.0 | 0.00 | 0.00 | 0.26 | 69 | 1011.8 |
| 20260905204925 | 84 | 233 | 4.0 | 5.0 | 0.00 | 0.00 | 0.26 | 78 | 1011.8 |
| 20260905204510 | 84 | 210 | 3.0 | 5.0 | 0.00 | 0.00 | 0.26 | 76 | 1011.8 |
| 20260905204053 | 84 | 239 | 3.0 | 5.0 | 0.00 | 0.00 | 0.26 | 80 | 1011.8 |
| 20260905203637 | 84 | 215 | 3.0 | 5.0 | 0.00 | 0.00 | 0.26 | 78 | 1011.8 |
| 20260905203223 | 84 | 234 | 3.0 | 5.0 | 0.00 | 0.00 | 0.26 | 79 | 1011.8 |
| 20260905202807 | 84 | 215 | 2.0 | 2.0 | 0.00 | 0.00 | 0.26 | 80 | 1011.8 |
| 20260905202353 | 85 | 246 | 1.0 | 2.0 | 0.00 | 0.00 | 0.26 | 85 | 1012.1 |
| 20260905201939 | 85 | 254 | 0.0 | 0.0 | 0.00 | 0.00 | 0.26 | 81 | 1012.1 |
| 20260905201524 | 86 | 250 | 0.0 | 0.0 | 0.00 | 0.00 | 0.26 | 77 | 1012.1 |
| 20260905201053 | 87 | 230 | 0.0 | 0.0 | 0.00 | 0.00 | 0.26 | 81 | 1012.1 |
| 20260905200154 | 88 | 285 | 2.0 | 5.0 | 0.00 | 0.00 | 0.26 | 72 | 1012.1 |
| 20260905195724 | 88 | 222 | 4.0 | 5.0 | 0.00 | 0.00 | 0.26 | 71 | 1012.1 |
| 20260905195307 | 88 | 253 | 1.0 | 2.0 | 0.00 | 0.00 | 0.26 | 73 | 1012.5 |
| 20260905194404 | 88 | 211 | 0.0 | 0.0 | 0.00 | 0.00 | 0.26 | 66 | 1012.1 |
| 20260905193500 | 87 | 259 | 0.0 | 0.0 | 0.00 | 0.00 | 0.26 | 69 | 1012.8 |
| 20260905193043 | 87 | 264 | 0.0 | 0.0 | 0.00 | 0.00 | 0.26 | 72 | 1012.5 |
| 20260905192613 | 87 | 241 | 0.0 | 0.0 | 0.00 | 0.00 | 0.26 | 74 | 1012.8 |
| 20260905192142 | 86 | 241 | 0.0 | 0.0 | 0.00 | 0.00 | 0.26 | 72 | 1012.5 |
| 20260905191726 | 86 | 252 | 0.0 | 0.0 | 0.00 | 0.00 | 0.26 | 71 | 1012.8 |
| 20260905191255 | 86 | 234 | 1.0 | 2.0 | 0.00 | 0.00 | 0.26 | 72 | 1012.8 |
| 20260905190840 | 86 | 259 | 0.0 | 0.0 | 0.00 | 0.00 | 0.26 | 71 | 1012.8 |
| 20260905190408 | 86 | 226 | 0.0 | 0.0 | 0.00 | 0.00 | 0.26 | 71 | 1012.8 |
| 20260905185938 | 86 | 248 | 0.0 | 0.0 | 0.00 | 0.00 | 0.26 | 72 | 1013.2 |
| 20260905185522 | 85 | 265 | 0.0 | 0.0 | 0.00 | 0.00 | 0.26 | 71 | 1013.5 |
| 20260905185051 | 85 | 255 | 0.0 | 0.0 | 0.00 | 0.00 | 0.26 | 70 | 1013.2 |
| 20260905184637 | 85 | 270 | 0.0 | 0.0 | 0.00 | 0.00 | 0.26 | 73 | 1013.5 |
| 20260905184222 | 84 | 6 | 0.0 | 2.0 | 0.00 | 0.00 | 0.26 | 75 | 1013.5 |
| 20260905183735 | 84 | 283 | 0.0 | 0.0 | 0.00 | 0.00 | 0.26 | 71 | 1013.5 |
| 20260905183319 | 84 | 241 | 0.0 | 0.0 | 0.00 | 0.00 | 0.26 | 75 | 1013.5 |
| 20260905182900 | 83 | 235 | 0.0 | 0.0 | 0.00 | 0.00 | 0.26 | 78 | 1013.5 |
| 20260905182014 | 82 | 272 | 0.0 | 0.0 | 0.00 | 0.00 | 0.26 | 76 | 1013.8 |
| 20260905181554 | 82 | 201 | 0.0 | 2.0 | 0.00 | 0.00 | 0.26 | 77 | 1013.8 |
| 20260905181123 | 82 | 76 | 0.0 | 0.0 | 0.00 | 0.00 | 0.26 | 75 | 1013.5 |
| 20260905180706 | 82 | 294 | 1.0 | 2.0 | 0.00 | 0.00 | 0.26 | 77 | 1013.5 |
| 20260905175804 | 82 | 333 | 2.0 | 5.0 | 0.00 | 0.00 | 0.26 | 82 | 1014.2 |
| 20260905175349 | 82 | 233 | 3.0 | 5.0 | 0.00 | 0.00 | 0.26 | 88 | 1014.2 |
| 20260905174934 | 82 | 217 | 0.0 | 0.0 | 0.00 | 0.00 | 0.26 | 85 | 1014.2 |
| 20260905174050 | 82 | 77 | 0.0 | 5.0 | 0.00 | 0.00 | 0.26 | 79 | 1014.2 |
| 20260905173634 | 81 | 257 | 0.0 | 2.0 | 0.00 | 0.00 | 0.26 | 80 | 1013.8 |
| 20260905173204 | 81 | 287 | 0.0 | 2.0 | 0.00 | 0.00 | 0.26 | 79 | 1013.8 |
| 20260905172747 | 80 | 253 | 1.0 | 2.0 | 0.00 | 0.00 | 0.26 | 82 | 1014.2 |
| 20260905171900 | 80 | 191 | 0.0 | 0.0 | 0.00 | 0.00 | 0.26 | 84 | 1014.2 |
| 20260905171444 | 80 | 94 | 2.0 | 5.0 | 0.00 | 0.00 | 0.26 | 89 | 1014.2 |
| 20260905170542 | 79 | 250 | 0.0 | 0.0 | 0.00 | 0.00 | 0.26 | 89 | 1014.2 |
| 20260905170127 | 79 | 182 | 3.0 | 5.0 | 0.00 | 0.00 | 0.26 | 86 | 1014.2 |
| 20260905165711 | 79 | 246 | 1.0 | 2.0 | 0.00 | 0.00 | 0.26 | 85 | 1014.2 |
| 20260905165253 | 79 | 202 | 0.0 | 0.0 | 0.00 | 0.00 | 0.26 | 88 | 1014.2 |
| 20260905164836 | 78 | 216 | 0.0 | 0.0 | 0.00 | 0.00 | 0.26 | 90 | 1014.5 |
| 20260905164422 | 78 | 207 | 4.0 | 5.0 | 0.00 | 0.00 | 0.26 | 89 | 1014.2 |
| 20260905163949 | 78 | 229 | 2.0 | 5.0 | 0.00 | 0.00 | 0.26 | 92 | 1014.5 |
| 20260905163518 | 77 | 202 | 0.0 | 2.0 | 0.00 | 0.00 | 0.26 | 91 | 1014.5 |
| 20260905163048 | 77 | 219 | 2.0 | 2.0 | 0.00 | 0.00 | 0.26 | 91 | 1014.5 |
| 20260905162632 | 76 | 300 | 1.0 | 2.0 | 0.00 | 0.00 | 0.26 | 87 | 1014.5 |
| 20260905162200 | 76 | 234 | 0.0 | 2.0 | 0.00 | 0.00 | 0.26 | 90 | 1014.9 |
| 20260905161743 | 75 | 152 | 0.0 | 2.0 | 0.00 | 0.00 | 0.26 | 92 | 1014.5 |
| 20260905161327 | 75 | 359 | 1.0 | 5.0 | 0.00 | 0.00 | 0.26 | 94 | 1014.5 |
| 20260905160856 | 75 | 283 | 0.0 | 0.0 | 0.00 | 0.00 | 0.26 | 96 | 1014.5 |
| 20260905160442 | 74 | 111 | 0.0 | 0.0 | 0.00 | 0.00 | 0.26 | 96 | 1014.2 |
| 20260905160011 | 74 | 56 | 2.0 | 5.0 | 0.00 | 0.00 | 0.26 | 96 | 1014.5 |
| 20260905155541 | 74 | 231 | 0.0 | 0.0 | 0.00 | 0.00 | 0.26 | 99 | 1014.5 |
| 20260905154209 | 74 | 283 | 0.0 | 2.0 | 0.00 | 0.00 | 0.26 | 98 | 1014.2 |
| 20260905153736 | 74 | 221 | 0.0 | 0.0 | 0.00 | 0.00 | 0.26 | 99 | 1013.8 |
| 20260905153318 | 73 | 141 | 1.0 | 5.0 | 0.00 | 0.00 | 0.26 | 99 | 1014.5 |
| 20260905152901 | 73 | 216 | 0.0 | 2.0 | 0.00 | 0.00 | 0.26 | 99 | 1014.9 |
| 20260905152444 | 73 | 301 | 2.0 | 5.0 | 0.00 | 0.00 | 0.26 | 99 | 1014.9 |
| 20260905152027 | 73 | 337 | 1.0 | 2.0 | 0.00 | 0.00 | 0.26 | 99 | 1015.2 |
| 20260905151555 | 73 | 290 | 0.0 | 0.0 | 0.00 | 0.00 | 0.26 | 99 | 1014.9 |
| 20260905151140 | 72 | 248 | 0.0 | 0.0 | 0.00 | 0.00 | 0.26 | 99 | 1014.9 |
| 20260905150722 | 72 | 37 | 1.0 | 2.0 | 0.00 | 0.00 | 0.26 | 99 | 1014.2 |
| 20260905150305 | 72 | 276 | 0.0 | 0.0 | 0.00 | 0.00 | 0.26 | 99 | 1014.2 |
| 20260905145849 | 72 | 269 | 0.0 | 0.0 | 0.00 | 0.00 | 0.26 | 99 | 1014.2 |
| 20260905145432 | 72 | 321 | 0.0 | 2.0 | 0.00 | 0.00 | 0.26 | 99 | 1014.2 |
| 20260905145017 | 72 | 229 | 0.0 | 0.0 | 0.00 | 0.00 | 0.26 | 99 | 1014.5 |
| 20260905144559 | 72 | 164 | 0.0 | 0.0 | 0.00 | 0.00 | 0.26 | 99 | 1014.5 |
| 20260905144144 | 73 | 262 | 0.0 | 0.0 | 0.00 | 0.00 | 0.26 | 99 | 1013.8 |
| 20260905143726 | 72 | 230 | 0.0 | 0.0 | 0.00 | 0.00 | 0.26 | 99 | 1014.2 |
| 20260905143256 | 72 | 153 | 0.0 | 0.0 | 0.00 | 0.00 | 0.26 | 99 | 1014.5 |
| 20260905142823 | 72 | 207 | 0.0 | 0.0 | 0.00 | 0.00 | 0.26 | 99 | 1014.5 |
| 20260905142407 | 72 | 169 | 0.0 | 0.0 | 0.00 | 0.00 | 0.26 | 99 | 1014.5 |
| 20260905141948 | 72 | 221 | 0.0 | 0.0 | 0.00 | 0.00 | 0.26 | 99 | 1014.9 |
| 20260905141533 | 71 | 228 | 0.0 | 0.0 | 0.00 | 0.00 | 0.26 | 99 | 1014.9 |
| 20260905140631 | 71 | 52 | 0.0 | 0.0 | 0.00 | 0.00 | 0.26 | 99 | 1015.2 |
| 20260905140215 | 71 | 224 | 0.0 | 0.0 | 0.00 | 0.00 | 0.26 | 99 | 1015.5 |
| 20260905135756 | 71 | 62 | 0.0 | 0.0 | 0.00 | 0.00 | 0.26 | 99 | 1015.5 |
| 20260905135338 | 71 | 182 | 0.0 | 0.0 | 0.00 | 0.00 | 0.26 | 99 | 1015.9 |
| 20260905134451 | 70 | 241 | 0.0 | 0.0 | 0.00 | 0.00 | 0.26 | 99 | 1016.2 |
| 20260905134033 | 70 | 274 | 0.0 | 0.0 | 0.00 | 0.00 | 0.26 | 99 | 1015.9 |
| 20260905133600 | 70 | 237 | 0.0 | 0.0 | 0.00 | 0.00 | 0.26 | 99 | 1015.5 |
| 20260905133129 | 70 | 244 | 0.0 | 0.0 | 0.00 | 0.00 | 0.26 | 99 | 1015.9 |
| 20260905132711 | 70 | 235 | 0.0 | 0.0 | 0.00 | 0.00 | 0.26 | 99 | 1015.5 |
| 20260905131339 | 70 | 238 | 0.0 | 0.0 | 0.00 | 0.00 | 0.26 | 99 | 1016.2 |
| 20260905130922 | 70 | 237 | 0.0 | 0.0 | 0.00 | 0.00 | 0.26 | 99 | 1015.9 |
| 20260905130504 | 70 | 235 | 0.0 | 0.0 | 0.00 | 0.00 | 0.26 | 99 | 1015.9 |
| 20260905130032 | 70 | 240 | 0.0 | 2.0 | 0.00 | 0.00 | 0.26 | 99 | 1015.5 |
| 20260905125613 | 70 | 237 | 0.0 | 2.0 | 0.00 | 0.00 | 0.26 | 99 | 1015.5 |
| 20260905124254 | 70 | 227 | 0.0 | 0.0 | 0.00 | 0.00 | 0.25 | 99 | 1015.5 |
| 20260905123408 | 70 | 153 | 0.0 | 2.0 | 0.00 | 0.00 | 0.19 | 99 | 1015.9 |
| 20260905122951 | 70 | 91 | 2.0 | 5.0 | 0.00 | 0.00 | 0.04 | 99 | 1016.2 |
| 20260905122045 | 70 | 218 | 0.0 | 0.0 | 0.00 | 0.00 | 0.02 | 99 | 1015.2 |
| 20260905121631 | 70 | 40 | 2.0 | 2.0 | 0.00 | 0.00 | 0.02 | 99 | 1014.9 |
| 20260905121200 | 70 | 257 | 0.0 | 0.0 | 0.00 | 0.00 | 0.02 | 99 | 1014.9 |
| 20260905120258 | 69 | 37 | 0.0 | 0.0 | 0.00 | 0.00 | 0.01 | 99 | 1014.5 |
| 20260905114922 | 68 | 211 | 5.0 | 7.0 | 0.00 | 0.00 | 0.00 | 99 | 1014.2 |
| 20260905114452 | 68 | 230 | 0.0 | 0.0 | 0.00 | 0.00 | 0.00 | 99 | 1013.8 |
| 20260905114038 | 68 | 231 | 0.0 | 0.0 | 0.00 | 0.00 | 0.00 | 99 | 1012.8 |
| 20260905113622 | 68 | 232 | 0.0 | 0.0 | 0.00 | 0.00 | 0.00 | 99 | 1012.8 |
| 20260905113136 | 68 | 234 | 0.0 | 0.0 | 0.00 | 0.00 | 0.00 | 99 | 1013.5 |
| 20260905112706 | 68 | 244 | 0.0 | 0.0 | 0.00 | 0.00 | 0.00 | 99 | 1013.2 |
| 20260905112251 | 68 | 234 | 0.0 | 0.0 | 0.00 | 0.00 | 0.00 | 99 | 1013.2 |
| 20260905111821 | 68 | 238 | 0.0 | 0.0 | 0.00 | 0.00 | 0.00 | 99 | 1013.2 |
| 20260905111406 | 68 | 234 | 0.0 | 0.0 | 0.00 | 0.00 | 0.00 | 99 | 1013.2 |
| 20260905110949 | 68 | 235 | 0.0 | 0.0 | 0.00 | 0.00 | 0.00 | 99 | 1013.2 |
| 20260905110519 | 68 | 238 | 0.0 | 0.0 | 0.00 | 0.00 | 0.00 | 99 | 1013.2 |
| 20260905110105 | 68 | 237 | 0.0 | 0.0 | 0.00 | 0.00 | 0.00 | 99 | 1012.8 |
| 20260905105634 | 68 | 227 | 0.0 | 0.0 | 0.00 | 0.00 | 0.00 | 99 | 1013.2 |
| 20260905105147 | 68 | 230 | 0.0 | 0.0 | 0.00 | 0.00 | 0.00 | 99 | 1013.2 |
| 20260905104731 | 68 | 223 | 0.0 | 0.0 | 0.00 | 0.00 | 0.00 | 99 | 1012.8 |
| 20260905104315 | 68 | 233 | 0.0 | 0.0 | 0.00 | 0.00 | 0.00 | 99 | 1012.8 |
| 20260905103859 | 68 | 242 | 0.0 | 0.0 | 0.00 | 0.00 | 0.00 | 99 | 1013.2 |
| 20260905103427 | 68 | 229 | 0.0 | 0.0 | 0.00 | 0.00 | 0.00 | 99 | 1013.5 |
| 20260905103012 | 68 | 234 | 0.0 | 0.0 | 0.00 | 0.00 | 0.00 | 99 | 1013.2 |
| 20260905102542 | 68 | 212 | 0.0 | 0.0 | 0.00 | 0.00 | 0.00 | 99 | 1012.8 |
| 20260905102127 | 68 | 221 | 0.0 | 0.0 | 0.00 | 0.00 | 0.00 | 99 | 1013.2 |
| 20260905101657 | 68 | 232 | 0.0 | 0.0 | 0.00 | 0.00 | 0.00 | 99 | 1013.2 |
| 20260905100256 | 68 | 219 | 0.0 | 0.0 | 0.00 | 0.00 | 0.00 | 99 | 1013.2 |
| 20260905095838 | 68 | 243 | 0.0 | 0.0 | 0.00 | 0.00 | 0.00 | 99 | 1013.2 |
| 20260905095420 | 68 | 233 | 0.0 | 0.0 | 0.00 | 0.00 | 0.00 | 99 | 1012.8 |
| 20260905094101 | 68 | 237 | 0.0 | 0.0 | 0.00 | 0.00 | 0.00 | 99 | 1012.8 |
| 20260905093644 | 68 | 227 | 0.0 | 0.0 | 0.00 | 0.00 | 0.00 | 99 | 1012.8 |
| 20260905093229 | 68 | 218 | 0.0 | 0.0 | 0.00 | 0.00 | 0.00 | 99 | 1013.2 |
| 20260905092812 | 68 | 235 | 0.0 | 0.0 | 0.00 | 0.00 | 0.00 | 99 | 1013.2 |
| 20260905091455 | 68 | 231 | 0.0 | 0.0 | 0.00 | 0.00 | 0.00 | 99 | 1013.2 |
| 20260905091041 | 68 | 236 | 0.0 | 0.0 | 0.00 | 0.00 | 0.00 | 99 | 1013.2 |
| 20260905090626 | 68 | 249 | 0.0 | 0.0 | 0.00 | 0.00 | 0.00 | 99 | 1013.2 |
| 20260905090157 | 68 | 231 | 0.0 | 0.0 | 0.00 | 0.00 | 0.00 | 99 | 1012.8 |
| 20260905085744 | 68 | 235 | 0.0 | 0.0 | 0.00 | 0.00 | 0.00 | 99 | 1013.2 |
| 20260905085329 | 68 | 236 | 0.0 | 0.0 | 0.00 | 0.00 | 0.00 | 99 | 1012.8 |
| 20260905084859 | 68 | 237 | 0.0 | 0.0 | 0.00 | 0.00 | 0.00 | 99 | 1013.2 |
| 20260905084445 | 68 | 234 | 0.0 | 0.0 | 0.00 | 0.00 | 0.00 | 99 | 1012.8 |
| 20260905084028 | 68 | 234 | 0.0 | 0.0 | 0.00 | 0.00 | 0.00 | 99 | 1013.2 |
| 20260905083559 | 68 | 222 | 0.0 | 0.0 | 0.00 | 0.00 | 0.00 | 99 | 1013.2 |
| 20260905083144 | 68 | 232 | 0.0 | 0.0 | 0.00 | 0.00 | 0.00 | 99 | 1013.2 |
| 20260905082727 | 68 | 238 | 0.0 | 0.0 | 0.00 | 0.00 | 0.00 | 99 | 1013.2 |
| 20260905082311 | 69 | 238 | 0.0 | 0.0 | 0.00 | 0.00 | 0.00 | 99 | 1012.8 |
| 20260905081854 | 69 | 236 | 0.0 | 0.0 | 0.00 | 0.00 | 0.00 | 99 | 1013.2 |
| 20260905081438 | 69 | 234 | 0.0 | 0.0 | 0.00 | 0.00 | 0.00 | 99 | 1013.2 |
| 20260905081020 | 69 | 234 | 0.0 | 0.0 | 0.00 | 0.00 | 0.00 | 99 | 1012.8 |
| 20260905080131 | 69 | 237 | 0.0 | 0.0 | 0.00 | 0.00 | 0.00 | 99 | 1013.2 |
| 20260905075714 | 69 | 238 | 0.0 | 0.0 | 0.00 | 0.00 | 0.00 | 99 | 1013.2 |
| 20260905074825 | 69 | 234 | 0.0 | 0.0 | 0.00 | 0.00 | 0.00 | 99 | 1012.8 |
| 20260905073934 | 69 | 235 | 0.0 | 0.0 | 0.00 | 0.00 | 0.00 | 99 | 1013.2 |
| 20260905073032 | 69 | 235 | 0.0 | 0.0 | 0.00 | 0.00 | 0.00 | 99 | 1013.2 |
| 20260905072618 | 69 | 235 | 0.0 | 0.0 | 0.00 | 0.00 | 0.00 | 99 | 1013.2 |
| 20260905071301 | 69 | 235 | 0.0 | 0.0 | 0.00 | 0.00 | 0.00 | 99 | 1013.5 |
| 20260905070830 | 69 | 236 | 0.0 | 0.0 | 0.00 | 0.00 | 0.00 | 99 | 1013.5 |
| 20260905070414 | 69 | 231 | 0.0 | 0.0 | 0.00 | 0.00 | 0.00 | 99 | 1013.8 |
| 20260905070000 | 69 | 229 | 0.0 | 0.0 | 0.00 | 0.00 | 0.00 | 99 | 1013.8 |
| 20260905065544 | 69 | 232 | 0.0 | 0.0 | 0.00 | 0.00 | 0.00 | 99 | 1013.8 |
| 20260905065129 | 69 | 223 | 0.0 | 0.0 | 0.00 | 0.00 | 0.00 | 99 | 1014.2 |
| 20260905064713 | 69 | 229 | 0.0 | 0.0 | 0.00 | 0.00 | 0.00 | 99 | 1014.5 |
| 20260905064257 | 69 | 222 | 0.0 | 0.0 | 0.00 | 0.00 | 0.00 | 99 | 1014.2 |
| 20260905063841 | 69 | 229 | 0.0 | 0.0 | 0.00 | 0.00 | 0.00 | 99 | 1014.2 |
| 20260905063426 | 69 | 234 | 0.0 | 0.0 | 0.00 | 0.00 | 0.00 | 99 | 1014.5 |
| 20260905062509 | 70 | 236 | 0.0 | 0.0 | 0.00 | 0.00 | 0.00 | 99 | 1014.5 |
| 20260905062037 | 70 | 238 | 0.0 | 0.0 | 0.00 | 0.00 | 0.00 | 99 | 1014.5 |
| 20260905061621 | 70 | 238 | 0.0 | 0.0 | 0.00 | 0.00 | 0.00 | 99 | 1014.5 |
| 20260905061204 | 70 | 234 | 0.0 | 0.0 | 0.00 | 0.00 | 0.00 | 99 | 1014.5 |
| 20260905060746 | 70 | 238 | 0.0 | 0.0 | 0.00 | 0.00 | 0.00 | 99 | 1014.9 |
| 20260905060329 | 70 | 240 | 0.0 | 0.0 | 0.00 | 0.00 | 0.00 | 99 | 1014.5 |
| 20260905055912 | 70 | 246 | 0.0 | 0.0 | 0.00 | 0.00 | 0.00 | 99 | 1014.5 |
| 20260905055456 | 70 | 237 | 0.0 | 0.0 | 0.00 | 0.00 | 0.00 | 99 | 1014.9 |
| 20260905055041 | 70 | 232 | 0.0 | 0.0 | 0.00 | 0.00 | 0.00 | 99 | 1014.9 |
| 20260905054625 | 70 | 233 | 0.0 | 0.0 | 0.00 | 0.00 | 0.00 | 99 | 1014.5 |
| 20260905054210 | 70 | 226 | 0.0 | 0.0 | 0.00 | 0.00 | 0.00 | 99 | 1014.9 |
| 20260905053753 | 70 | 235 | 0.0 | 0.0 | 0.00 | 0.00 | 0.00 | 99 | 1014.9 |
| 20260905053323 | 69 | 205 | 0.0 | 0.0 | 0.00 | 0.00 | 0.00 | 99 | 1014.9 |
| 20260905052851 | 69 | 194 | 0.0 | 0.0 | 0.00 | 0.00 | 0.00 | 99 | 1014.9 |
| 20260905052436 | 69 | 235 | 0.0 | 0.0 | 0.00 | 0.00 | 0.00 | 99 | 1015.2 |
| 20260905052020 | 69 | 235 | 0.0 | 0.0 | 0.00 | 0.00 | 0.00 | 99 | 1015.2 |
| 20260905051549 | 69 | 229 | 0.0 | 0.0 | 0.00 | 0.00 | 0.00 | 99 | 1015.2 |
| 20260905051120 | 69 | 226 | 0.0 | 0.0 | 0.00 | 0.00 | 0.00 | 99 | 1015.2 |
| 20260905050219 | 69 | 235 | 0.0 | 0.0 | 0.00 | 0.00 | 0.00 | 99 | 1015.5 |
| 20260905045802 | 69 | 235 | 0.0 | 0.0 | 0.00 | 0.00 | 0.00 | 99 | 1015.5 |
| 20260905045346 | 70 | 235 | 0.0 | 0.0 | 0.00 | 0.00 | 0.00 | 99 | 1015.5 |
| 20260905044915 | 70 | 236 | 0.0 | 0.0 | 0.00 | 0.00 | 0.00 | 99 | 1015.5 |
| 20260905044444 | 70 | 234 | 0.0 | 0.0 | 0.00 | 0.00 | 0.00 | 99 | 1015.2 |
| 20260905044028 | 70 | 234 | 0.0 | 0.0 | 0.00 | 0.00 | 0.00 | 99 | 1015.2 |
| 20260905043614 | 70 | 237 | 0.0 | 0.0 | 0.00 | 0.00 | 0.00 | 99 | 1015.2 |
| 20260905043158 | 70 | 237 | 0.0 | 0.0 | 0.00 | 0.00 | 0.00 | 99 | 1015.5 |
| 20260905042743 | 70 | 235 | 0.0 | 0.0 | 0.00 | 0.00 | 0.00 | 99 | 1015.5 |
| 20260905042257 | 70 | 236 | 0.0 | 0.0 | 0.00 | 0.00 | 0.00 | 99 | 1015.2 |
| 20260905041840 | 70 | 237 | 0.0 | 0.0 | 0.00 | 0.00 | 0.00 | 99 | 1015.5 |
| 20260905041409 | 70 | 237 | 0.0 | 0.0 | 0.00 | 0.00 | 0.00 | 99 | 1015.2 |
| 20260905040950 | 70 | 234 | 0.0 | 0.0 | 0.00 | 0.00 | 0.00 | 99 | 1015.2 |
| 20260905040534 | 70 | 233 | 0.0 | 0.0 | 0.00 | 0.00 | 0.00 | 99 | 1015.2 |
| 20260905040103 | 70 | 234 | 0.0 | 0.0 | 0.00 | 0.00 | 0.00 | 99 | 1015.2 |
| 20260905035632 | 70 | 232 | 0.0 | 0.0 | 0.00 | 0.00 | 0.06 | 99 | 1015.2 |
| 20260905035216 | 70 | 231 | 0.0 | 0.0 | 0.00 | 0.00 | 0.06 | 99 | 1015.2 |
| 20260905034800 | 70 | 219 | 0.0 | 0.0 | 0.00 | 0.00 | 0.06 | 99 | 1015.2 |
| 20260905034344 | 70 | 210 | 0.0 | 0.0 | 0.00 | 0.00 | 0.06 | 99 | 1015.2 |
| 20260905033927 | 70 | 228 | 0.0 | 0.0 | 0.00 | 0.00 | 0.06 | 99 | 1015.2 |
| 20260905033510 | 70 | 232 | 0.0 | 0.0 | 0.00 | 0.00 | 0.06 | 99 | 1014.9 |
| 20260905033051 | 70 | 237 | 0.0 | 0.0 | 0.00 | 0.00 | 0.06 | 99 | 1015.2 |
| 20260905032635 | 70 | 200 | 0.0 | 0.0 | 0.00 | 0.00 | 0.06 | 99 | 1014.9 |
| 20260905032204 | 70 | 236 | 0.0 | 0.0 | 0.00 | 0.00 | 0.06 | 99 | 1015.2 |
| 20260905031730 | 70 | 238 | 0.0 | 0.0 | 0.00 | 0.00 | 0.06 | 99 | 1015.2 |
| 20260905031312 | 70 | 235 | 0.0 | 0.0 | 0.00 | 0.00 | 0.06 | 99 | 1015.2 |
| 20260905030842 | 70 | 235 | 0.0 | 0.0 | 0.00 | 0.00 | 0.06 | 99 | 1015.2 |
| 20260905025938 | 71 | 236 | 0.0 | 0.0 | 0.00 | 0.00 | 0.06 | 99 | 1014.9 |
| 20260905025522 | 71 | 236 | 0.0 | 0.0 | 0.00 | 0.00 | 0.06 | 99 | 1015.2 |
| 20260905025106 | 71 | 235 | 0.0 | 0.0 | 0.00 | 0.00 | 0.06 | 99 | 1015.2 |
| 20260905024650 | 71 | 235 | 0.0 | 0.0 | 0.00 | 0.00 | 0.06 | 99 | 1015.2 |
| 20260905023747 | 71 | 236 | 0.0 | 0.0 | 0.00 | 0.00 | 0.06 | 99 | 1015.2 |
| 20260905022411 | 71 | 236 | 0.0 | 0.0 | 0.00 | 0.00 | 0.06 | 99 | 1015.2 |
| 20260905021938 | 71 | 237 | 0.0 | 0.0 | 0.00 | 0.00 | 0.06 | 99 | 1015.2 |
| 20260905021521 | 72 | 223 | 0.0 | 0.0 | 0.00 | 0.00 | 0.06 | 99 | 1015.2 |
| 20260905021104 | 72 | 235 | 0.0 | 0.0 | 0.00 | 0.00 | 0.06 | 99 | 1015.2 |
| 20260905020649 | 72 | 235 | 0.0 | 0.0 | 0.00 | 0.00 | 0.06 | 99 | 1015.2 |
| 20260905020234 | 72 | 235 | 0.0 | 0.0 | 0.00 | 0.00 | 0.06 | 99 | 1015.2 |
| 20260905015818 | 72 | 235 | 0.0 | 0.0 | 0.00 | 0.00 | 0.06 | 99 | 1015.2 |
| 20260905014931 | 72 | 235 | 0.0 | 0.0 | 0.00 | 0.00 | 0.06 | 99 | 1015.2 |
| 20260905014459 | 72 | 236 | 0.0 | 0.0 | 0.00 | 0.00 | 0.06 | 99 | 1014.9 |
| 20260905014044 | 72 | 231 | 0.0 | 0.0 | 0.00 | 0.00 | 0.06 | 99 | 1015.2 |
| 20260905013629 | 72 | 235 | 0.0 | 0.0 | 0.00 | 0.00 | 0.06 | 99 | 1015.2 |
| 20260905013212 | 73 | 235 | 0.0 | 0.0 | 0.00 | 0.00 | 0.06 | 99 | 1014.9 |
| 20260905012741 | 73 | 236 | 0.0 | 0.0 | 0.00 | 0.00 | 0.06 | 99 | 1015.2 |
| 20260905012323 | 73 | 236 | 0.0 | 0.0 | 0.00 | 0.00 | 0.06 | 99 | 1014.9 |
| 20260905011907 | 73 | 235 | 0.0 | 0.0 | 0.00 | 0.00 | 0.06 | 99 | 1014.5 |
| 20260905011449 | 73 | 236 | 0.0 | 0.0 | 0.00 | 0.00 | 0.06 | 99 | 1014.5 |
| 20260905010544 | 73 | 235 | 0.0 | 0.0 | 0.00 | 0.00 | 0.06 | 99 | 1014.9 |
| 20260905010128 | 73 | 235 | 0.0 | 0.0 | 0.00 | 0.00 | 0.06 | 99 | 1014.9 |
| 20260905005711 | 74 | 236 | 0.0 | 0.0 | 0.00 | 0.00 | 0.06 | 99 | 1014.5 |
| 20260905005255 | 74 | 242 | 0.0 | 0.0 | 0.00 | 0.00 | 0.06 | 99 | 1014.5 |
| 20260905004824 | 74 | 220 | 0.0 | 0.0 | 0.00 | 0.00 | 0.06 | 99 | 1014.2 |
| 20260905004407 | 74 | 232 | 0.0 | 0.0 | 0.00 | 0.00 | 0.06 | 99 | 1014.2 |
| 20260905003950 | 74 | 235 | 0.0 | 0.0 | 0.00 | 0.00 | 0.06 | 99 | 1014.2 |
| 20260905003104 | 75 | 241 | 0.0 | 0.0 | 0.00 | 0.00 | 0.06 | 99 | 1013.5 |
| 20260905002648 | 75 | 242 | 0.0 | 0.0 | 0.00 | 0.00 | 0.06 | 99 | 1013.5 |
| 20260905002231 | 75 | 246 | 0.0 | 0.0 | 0.00 | 0.00 | 0.06 | 99 | 1013.2 |
| 20260905001817 | 75 | 237 | 0.0 | 0.0 | 0.00 | 0.00 | 0.06 | 99 | 1012.8 |
| 20260905001400 | 75 | 153 | 0.0 | 0.0 | 0.00 | 0.00 | 0.06 | 99 | 1012.8 |
| 20260905000943 | 76 | 233 | 0.0 | 0.0 | 0.00 | 0.00 | 0.06 | 99 | 1012.8 |
| 20260905000525 | 76 | 212 | 0.0 | 0.0 | 0.00 | 0.00 | 0.06 | 99 | 1013.2 |
| 20260905000105 | 76 | 224 | 0.0 | 0.0 | 0.00 | 0.00 | 0.06 | 99 | 1013.2 |
| 20260904235217 | 76 | 204 | 0.0 | 0.0 | 0.00 | 0.00 | 0.06 | 99 | 1012.8 |
| 20260904234801 | 76 | 181 | 0.0 | 0.0 | 0.00 | 0.00 | 0.06 | 99 | 1013.2 |
| 20260904234331 | 76 | 232 | 0.0 | 0.0 | 0.00 | 0.00 | 0.06 | 99 | 1013.5 |
| 20260904233914 | 76 | 76 | 0.0 | 0.0 | 0.00 | 0.00 | 0.06 | 99 | 1013.5 |
| 20260904233443 | 76 | 196 | 0.0 | 0.0 | 0.00 | 0.00 | 0.06 | 99 | 1013.8 |
| 20260904233012 | 77 | 152 | 0.0 | 0.0 | 0.00 | 0.00 | 0.06 | 99 | 1013.5 |
| 20260904232111 | 77 | 213 | 0.0 | 0.0 | 0.00 | 0.00 | 0.06 | 99 | 1014.2 |
| 20260904231654 | 77 | 222 | 0.0 | 0.0 | 0.00 | 0.00 | 0.06 | 99 | 1014.2 |
| 20260904231223 | 78 | 224 | 0.0 | 0.0 | 0.00 | 0.00 | 0.06 | 99 | 1014.2 |
| 20260904230752 | 78 | 211 | 0.0 | 0.0 | 0.00 | 0.00 | 0.06 | 99 | 1014.2 |
| 20260904225849 | 80 | 236 | 0.0 | 0.0 | 0.00 | 0.00 | 0.06 | 99 | 1014.5 |
| 20260904225432 | 80 | 237 | 0.0 | 0.0 | 0.00 | 0.00 | 0.06 | 99 | 1014.5 |
| 20260904225016 | 81 | 238 | 0.0 | 0.0 | 0.00 | 0.00 | 0.06 | 98 | 1014.5 |
| 20260904224529 | 81 | 254 | 0.0 | 0.0 | 0.00 | 0.00 | 0.06 | 98 | 1014.5 |
| 20260904223153 | 82 | 248 | 0.0 | 0.0 | 0.00 | 0.00 | 0.06 | 94 | 1014.9 |
| 20260904222736 | 81 | 240 | 0.0 | 0.0 | 0.00 | 0.00 | 0.06 | 94 | 1014.9 |
| 20260904222319 | 81 | 235 | 0.0 | 0.0 | 0.00 | 0.00 | 0.06 | 95 | 1014.9 |
| 20260904221902 | 81 | 227 | 0.0 | 0.0 | 0.00 | 0.00 | 0.06 | 93 | 1015.2 |
| 20260904220943 | 81 | 258 | 0.0 | 0.0 | 0.00 | 0.00 | 0.06 | 96 | 1015.5 |
| 20260904220523 | 81 | 218 | 0.0 | 0.0 | 0.00 | 0.00 | 0.06 | 97 | 1015.2 |
| 20260904215646 | 81 | 204 | 0.0 | 0.0 | 0.00 | 0.00 | 0.06 | 97 | 1015.2 |
| 20260904215229 | 81 | 238 | 0.0 | 0.0 | 0.00 | 0.00 | 0.06 | 97 | 1015.2 |
| 20260904214755 | 81 | 231 | 0.0 | 0.0 | 0.00 | 0.00 | 0.06 | 96 | 1015.2 |
| 20260904214339 | 80 | 238 | 0.0 | 2.0 | 0.00 | 0.00 | 0.06 | 96 | 1015.5 |
| 20260904213902 | 80 | 239 | 0.0 | 0.0 | 0.00 | 0.00 | 0.06 | 96 | 1015.5 |